createdAt,value
2018-04-01T00:02:06.508Z,89.74
2018-04-01T00:04:32.343Z,89.35
2018-04-01T00:06:58.166Z,89.23
2018-04-01T00:09:23.973Z,89.52
2018-04-01T00:11:49.791Z,89.23
2018-04-01T00:14:15.612Z,89.13
2018-04-01T00:16:41.482Z,89.76
2018-04-01T00:19:07.427Z,92.40
2018-04-01T00:21:33.226Z,91.75
2018-04-01T00:23:59.119Z,92.75
2018-04-01T00:26:24.994Z,92.40
2018-04-01T00:28:50.803Z,92.20
2018-04-01T00:31:16.638Z,93.41
2018-04-01T00:33:42.450Z,93.03
2018-04-01T00:36:08.257Z,93.35
2018-04-01T00:38:34.038Z,93.27
2018-04-01T00:40:59.879Z,92.31
2018-04-01T00:43:25.699Z,91.65
2018-04-01T00:45:51.516Z,90.48
2018-04-01T00:48:17.341Z,90.46
2018-04-01T00:50:43.169Z,90.54
2018-04-01T00:53:09.052Z,90.21
2018-04-01T00:55:34.979Z,90.65
2018-04-01T00:58:00.829Z,91.41
2018-04-01T01:00:26.648Z,92.18
2018-04-01T01:02:53.078Z,93.60
2018-04-01T01:05:18.896Z,94.49
2018-04-01T01:07:44.716Z,94.07
2018-04-01T01:10:10.542Z,94.30
2018-04-01T01:12:36.365Z,95.39
2018-04-01T01:15:02.176Z,95.58
2018-04-01T01:17:27.978Z,95.75
2018-04-01T01:19:53.780Z,95.68
2018-04-01T01:22:19.637Z,96.67
2018-04-01T01:24:45.462Z,97.42
2018-04-01T01:27:11.274Z,97.94
2018-04-01T01:29:37.141Z,98.46
2018-04-01T01:32:02.921Z,99.17
2018-04-01T01:34:28.826Z,99.39
2018-04-01T01:36:54.615Z,99.43
2018-04-01T01:39:20.535Z,99.95
2018-04-01T01:41:47.038Z,99.81
2018-04-01T01:44:12.897Z,100.00
2018-04-01T01:46:38.745Z,100.00
2018-04-01T01:49:04.625Z,100.00
2018-04-01T01:51:30.544Z,99.99
2018-04-01T01:53:56.387Z,100.00
2018-04-01T01:56:22.236Z,100.00
2018-04-01T01:58:48.070Z,100.00
2018-04-01T02:01:13.888Z,100.00
2018-04-01T02:03:39.797Z,100.00
2018-04-01T02:06:05.594Z,100.00
2018-04-01T02:08:31.458Z,100.00
2018-04-01T02:10:57.271Z,100.00
2018-04-01T02:13:23.065Z,100.00
2018-04-01T02:15:48.878Z,100.00
2018-04-01T02:18:14.685Z,100.00
2018-04-01T02:20:40.577Z,100.00
2018-04-01T02:23:06.414Z,100.00
2018-04-01T02:25:32.326Z,100.00
2018-04-01T02:27:58.124Z,100.00
2018-04-01T02:30:23.939Z,100.00
2018-04-01T02:32:49.747Z,100.00
2018-04-01T02:35:15.683Z,100.00
2018-04-01T02:37:41.491Z,100.00
2018-04-01T02:40:07.378Z,100.00
2018-04-01T02:42:33.197Z,100.00
2018-04-01T02:44:59.030Z,100.00
2018-04-01T02:47:24.827Z,100.00
2018-04-01T02:49:50.673Z,100.00
2018-04-01T02:52:16.476Z,100.00
2018-04-01T02:54:42.318Z,100.00
2018-04-01T02:57:08.114Z,100.00
2018-04-01T02:59:33.920Z,100.00
2018-04-01T03:01:59.726Z,100.00
2018-04-01T03:04:25.540Z,100.00
2018-04-01T03:06:51.362Z,100.00
2018-04-01T03:09:17.192Z,100.00
2018-04-01T03:11:43.158Z,100.00
2018-04-01T03:14:09.003Z,100.00
2018-04-01T03:16:34.838Z,100.00
2018-04-01T03:19:00.670Z,100.00
2018-04-01T03:21:26.522Z,100.00
2018-04-01T03:23:52.377Z,100.00
2018-04-01T03:26:18.196Z,100.00
2018-04-01T03:28:44.036Z,100.00
2018-04-01T03:31:09.864Z,100.00
2018-04-01T03:33:35.684Z,100.00
2018-04-01T03:36:01.511Z,100.00
2018-04-01T03:38:27.500Z,100.00
2018-04-01T03:40:53.336Z,100.00
2018-04-01T03:43:19.309Z,100.00
2018-04-01T03:45:45.129Z,100.00
2018-04-01T03:48:10.934Z,100.00
2018-04-01T03:50:36.722Z,100.00
2018-04-01T03:53:02.558Z,100.00
2018-04-01T03:55:28.357Z,100.00
2018-04-01T03:57:54.158Z,100.00
2018-04-01T04:00:19.943Z,100.00
2018-04-01T04:02:45.954Z,100.00
2018-04-01T04:05:11.798Z,100.00
2018-04-01T04:07:37.646Z,100.00
2018-04-01T04:10:04.091Z,100.00
2018-04-01T04:12:29.973Z,100.00
2018-04-01T04:14:55.788Z,100.00
2018-04-01T04:17:21.663Z,100.00
2018-04-01T04:19:47.529Z,100.00
2018-04-01T04:22:13.360Z,100.00
2018-04-01T04:24:39.369Z,100.00
2018-04-01T04:27:05.253Z,100.00
2018-04-01T04:29:31.198Z,100.00
2018-04-01T04:31:57.022Z,100.00
2018-04-01T04:34:22.833Z,100.00
2018-04-01T04:36:48.666Z,100.00
2018-04-01T04:39:14.468Z,100.00
2018-04-01T04:41:40.266Z,100.00
2018-04-01T04:44:06.070Z,100.00
2018-04-01T04:46:31.913Z,100.00
2018-04-01T04:48:57.759Z,100.00
2018-04-01T04:51:23.790Z,100.00
2018-04-01T04:53:49.614Z,100.00
2018-04-01T04:56:15.659Z,100.00
2018-04-01T04:58:41.655Z,100.00
2018-04-01T05:01:07.466Z,100.00
2018-04-01T05:03:33.514Z,100.00
2018-04-01T05:05:59.482Z,100.00
2018-04-01T05:08:25.366Z,100.00
2018-04-01T05:10:51.348Z,100.00
2018-04-01T05:13:17.140Z,100.00
2018-04-01T05:15:42.942Z,100.00
2018-04-01T05:18:08.766Z,100.00
2018-04-01T05:20:34.604Z,100.00
2018-04-01T05:23:00.440Z,100.00
2018-04-01T05:25:26.255Z,100.00
2018-04-01T05:27:52.049Z,100.00
2018-04-01T05:30:17.946Z,100.00
2018-04-01T05:32:43.782Z,100.00
2018-04-01T05:35:09.611Z,100.00
2018-04-01T05:37:36.435Z,100.00
2018-04-01T05:40:02.265Z,100.00
2018-04-01T05:42:28.086Z,100.00
2018-04-01T05:44:53.913Z,100.00
2018-04-01T05:47:19.958Z,100.00
2018-04-01T05:49:45.783Z,100.00
2018-04-01T05:52:11.641Z,100.00
2018-04-01T05:54:37.559Z,100.00
2018-04-01T05:57:03.375Z,100.00
2018-04-01T05:59:29.370Z,100.00
2018-04-01T06:01:55.150Z,100.00
2018-04-01T06:04:21.132Z,100.00
2018-04-01T06:06:47.135Z,100.00
2018-04-01T06:09:13.103Z,100.00
2018-04-01T06:11:38.962Z,100.00
2018-04-01T06:14:04.844Z,100.00
2018-04-01T06:16:30.666Z,100.00
2018-04-01T06:18:56.508Z,100.00
2018-04-01T06:21:22.330Z,100.00
2018-04-01T06:23:48.174Z,100.00
2018-04-01T06:26:13.998Z,100.00
2018-04-01T06:28:39.780Z,100.00
2018-04-01T06:31:05.632Z,100.00
2018-04-01T06:33:31.523Z,100.00
2018-04-01T06:35:57.321Z,100.00
2018-04-01T06:38:23.270Z,100.00
2018-04-01T06:40:49.082Z,100.00
2018-04-01T06:43:14.893Z,100.00
2018-04-01T06:45:40.686Z,100.00
2018-04-01T06:48:06.694Z,100.00
2018-04-01T06:50:32.544Z,100.00
2018-04-01T06:52:58.397Z,100.00
2018-04-01T06:55:24.221Z,100.00
2018-04-01T06:57:50.065Z,100.00
2018-04-01T07:00:15.878Z,100.00
2018-04-01T07:02:41.676Z,100.00
2018-04-01T07:05:07.495Z,100.00
2018-04-01T07:07:33.329Z,100.00
2018-04-01T07:09:59.612Z,100.00
2018-04-01T07:12:25.672Z,100.00
2018-04-01T07:14:51.678Z,100.00
2018-04-01T07:17:17.630Z,100.00
2018-04-01T07:19:43.515Z,100.00
2018-04-01T07:22:09.355Z,100.00
2018-04-01T07:24:35.170Z,100.00
2018-04-01T07:27:01.035Z,100.00
2018-04-01T07:29:26.861Z,100.00
2018-04-01T07:31:52.730Z,100.00
2018-04-01T07:34:18.549Z,100.00
2018-04-01T07:36:44.361Z,100.00
2018-04-01T07:39:10.157Z,99.56
2018-04-01T07:41:35.994Z,99.94
2018-04-01T07:44:01.823Z,99.79
2018-04-01T07:46:27.731Z,100.00
2018-04-01T07:48:53.589Z,99.25
2018-04-01T07:51:19.487Z,99.97
2018-04-01T07:53:45.286Z,100.00
2018-04-01T07:56:11.121Z,99.60
2018-04-01T07:58:36.935Z,99.15
2018-04-01T08:01:02.779Z,99.00
2018-04-01T08:03:28.662Z,99.27
2018-04-01T08:05:54.510Z,99.17
2018-04-01T08:08:20.307Z,99.19
2018-04-01T08:10:46.105Z,99.79
2018-04-01T08:13:11.923Z,99.74
2018-04-01T08:15:37.708Z,99.02
2018-04-01T08:18:03.574Z,97.74
2018-04-01T08:20:29.383Z,98.02
2018-04-01T08:22:55.284Z,99.47
2018-04-01T08:25:21.688Z,98.33
2018-04-01T08:27:47.518Z,97.84
2018-04-01T08:30:13.363Z,98.30
2018-04-01T08:32:39.281Z,98.05
2018-04-01T08:35:05.121Z,99.23
2018-04-01T08:37:31.947Z,99.15
2018-04-01T08:39:57.789Z,99.22
2018-04-01T08:42:23.739Z,99.64
2018-04-01T08:44:49.560Z,99.00
2018-04-01T08:47:15.481Z,99.26
2018-04-01T08:49:41.313Z,99.57
2018-04-01T08:52:07.114Z,99.07
2018-04-01T08:54:32.911Z,98.09
2018-04-01T08:56:58.709Z,99.25
2018-04-01T08:59:24.521Z,99.53
2018-04-01T09:01:50.312Z,99.28
2018-04-01T09:04:16.106Z,98.65
2018-04-01T09:06:41.992Z,98.96
2018-04-01T09:09:07.796Z,99.71
2018-04-01T09:11:33.671Z,98.95
2018-04-01T09:13:59.493Z,99.11
2018-04-01T09:16:25.339Z,98.64
2018-04-01T09:18:51.241Z,99.33
2018-04-01T09:21:17.069Z,98.27
2018-04-01T09:23:43.807Z,98.36
2018-04-01T09:26:09.667Z,97.69
2018-04-01T09:28:35.563Z,98.73
2018-04-01T09:31:01.367Z,98.51
2018-04-01T09:33:27.277Z,98.21
2018-04-01T09:35:53.105Z,98.40
2018-04-01T09:38:18.914Z,97.83
2018-04-01T09:40:44.719Z,98.29
2018-04-01T09:43:10.571Z,98.18
2018-04-01T09:45:36.374Z,97.37
2018-04-01T09:48:02.170Z,98.04
2018-04-01T09:50:27.997Z,98.62
2018-04-01T09:52:53.811Z,99.13
2018-04-01T09:55:19.623Z,99.44
2018-04-01T09:57:45.450Z,98.81
2018-04-01T10:00:11.311Z,98.71
2018-04-01T10:02:37.350Z,98.78
2018-04-01T10:05:09.460Z,98.15
2018-04-01T10:07:35.652Z,97.84
2018-04-01T10:10:01.731Z,98.48
2018-04-01T10:12:27.830Z,97.89
2018-04-01T10:14:53.857Z,98.76
2018-04-01T10:17:19.882Z,99.01
2018-04-01T10:19:46.030Z,98.70
2018-04-01T10:22:12.102Z,96.90
2018-04-01T10:24:38.221Z,98.27
2018-04-01T10:27:04.243Z,99.22
2018-04-01T10:29:30.280Z,98.35
2018-04-01T10:31:56.284Z,98.52
2018-04-01T10:34:22.303Z,97.54
2018-04-01T10:36:48.338Z,99.06
2018-04-01T10:39:14.360Z,98.51
2018-04-01T10:41:40.445Z,99.25
2018-04-01T10:44:06.484Z,97.95
2018-04-01T10:46:33.214Z,98.37
2018-04-01T10:48:59.323Z,98.07
2018-04-01T10:51:25.374Z,98.15
2018-04-01T10:53:56.148Z,98.25
2018-04-01T10:56:22.152Z,97.69
2018-04-01T10:58:48.004Z,97.41
2018-04-01T11:01:13.947Z,98.08
2018-04-01T11:03:39.793Z,98.47
2018-04-01T11:06:05.686Z,97.84
2018-04-01T11:08:31.654Z,98.06
2018-04-01T11:10:57.542Z,97.21
2018-04-01T11:13:23.445Z,98.12
2018-04-01T11:15:49.410Z,97.17
2018-04-01T11:18:15.228Z,97.83
2018-04-01T11:20:41.115Z,95.03
2018-04-01T11:23:06.941Z,96.09
2018-04-01T11:25:32.797Z,96.51
2018-04-01T11:27:58.636Z,96.88
2018-04-01T11:30:24.456Z,96.54
2018-04-01T11:32:50.284Z,97.50
2018-04-01T11:35:16.093Z,96.75
2018-04-01T11:37:41.941Z,96.63
2018-04-01T11:40:07.800Z,96.76
2018-04-01T11:42:33.632Z,96.45
2018-04-01T11:44:59.513Z,95.87
2018-04-01T11:47:25.565Z,96.04
2018-04-01T11:49:51.432Z,98.24
2018-04-01T11:52:17.395Z,98.43
2018-04-01T11:54:43.342Z,98.07
2018-04-01T11:57:09.952Z,96.89
2018-04-01T11:59:35.767Z,96.74
2018-04-01T12:02:01.582Z,97.91
2018-04-01T12:04:27.486Z,97.25
2018-04-01T12:06:53.356Z,97.67
2018-04-01T12:09:19.334Z,97.99
2018-04-01T12:11:45.200Z,97.43
2018-04-01T12:14:11.034Z,97.06
2018-04-01T12:16:36.889Z,96.42
2018-04-01T12:19:02.811Z,96.75
2018-04-01T12:21:28.747Z,95.44
2018-04-01T12:23:54.573Z,96.52
2018-04-01T12:26:20.402Z,95.86
2018-04-01T12:28:46.270Z,95.00
2018-04-01T12:31:12.131Z,97.38
2018-04-01T12:33:37.977Z,98.32
2018-04-01T12:36:03.802Z,97.90
2018-04-01T12:38:29.654Z,97.63
2018-04-01T12:40:55.467Z,97.65
2018-04-01T12:43:21.407Z,97.69
2018-04-01T12:45:47.222Z,97.28
2018-04-01T12:48:13.109Z,96.54
2018-04-01T12:50:38.943Z,97.19
2018-04-01T12:53:04.764Z,96.18
2018-04-01T12:55:30.695Z,96.82
2018-04-01T12:57:56.537Z,95.14
2018-04-01T13:00:22.332Z,96.67
2018-04-01T13:02:48.141Z,96.09
2018-04-01T13:05:13.968Z,96.54
2018-04-01T13:07:39.928Z,95.31
2018-04-01T13:10:05.847Z,95.05
2018-04-01T13:12:31.649Z,96.74
2018-04-01T13:14:57.532Z,96.06
2018-04-01T13:17:23.353Z,96.27
2018-04-01T13:19:49.314Z,96.35
2018-04-01T13:22:15.121Z,95.65
2018-04-01T13:24:41.055Z,95.26
2018-04-01T13:27:06.930Z,94.37
2018-04-01T13:29:33.495Z,95.09
2018-04-01T13:31:59.399Z,96.93
2018-04-01T13:34:25.280Z,96.02
2018-04-01T13:36:51.145Z,95.17
2018-04-01T13:39:16.949Z,94.93
2018-04-01T13:41:42.766Z,94.99
2018-04-01T13:44:08.633Z,93.35
2018-04-01T13:46:34.442Z,93.79
2018-04-01T13:49:00.294Z,93.75
2018-04-01T13:51:26.103Z,94.42
2018-04-01T13:53:51.972Z,94.36
2018-04-01T13:56:17.886Z,93.33
2018-04-01T13:58:43.751Z,92.59
2018-04-01T14:01:09.549Z,92.62
2018-04-01T14:03:35.444Z,91.94
2018-04-01T14:06:01.260Z,88.78
2018-04-01T14:08:27.261Z,87.64
2018-04-01T14:10:53.115Z,88.86
2018-04-01T14:13:18.927Z,86.01
2018-04-01T14:15:44.782Z,86.82
2018-04-01T14:18:10.628Z,87.25
2018-04-01T14:20:36.531Z,84.90
2018-04-01T14:23:02.412Z,86.47
2018-04-01T14:25:28.247Z,83.78
2018-04-01T14:27:54.094Z,84.83
2018-04-01T14:30:19.945Z,83.86
2018-04-01T14:32:45.755Z,82.80
2018-04-01T14:35:11.675Z,84.00
2018-04-01T14:37:37.482Z,84.36
2018-04-01T14:40:03.351Z,84.33
2018-04-01T14:42:29.180Z,86.21
2018-04-01T14:44:55.023Z,85.59
2018-04-01T14:47:20.983Z,84.01
2018-04-01T14:49:46.820Z,84.49
2018-04-01T14:52:12.627Z,84.71
2018-04-01T14:54:38.466Z,82.75
2018-04-01T14:57:04.321Z,84.07
2018-04-01T14:59:30.154Z,86.44
2018-04-01T15:01:56.218Z,88.63
2018-04-01T15:04:22.047Z,87.32
2018-04-01T15:06:47.838Z,89.11
2018-04-01T15:09:13.832Z,87.00
2018-04-01T15:11:39.698Z,87.12
2018-04-01T15:14:05.606Z,88.27
2018-04-01T15:16:31.521Z,86.94
2018-04-01T15:18:57.356Z,86.35
2018-04-01T15:21:23.272Z,87.22
2018-04-01T15:23:49.103Z,86.35
2018-04-01T15:26:14.914Z,87.62
2018-04-01T15:28:40.771Z,86.98
2018-04-01T15:31:06.628Z,84.49
2018-04-01T15:33:32.489Z,86.54
2018-04-01T15:35:58.285Z,85.93
2018-04-01T15:38:24.184Z,87.08
2018-04-01T15:40:50.036Z,86.58
2018-04-01T15:43:15.844Z,87.06
2018-04-01T15:45:41.694Z,87.54
2018-04-01T15:48:07.550Z,87.91
2018-04-01T15:50:33.371Z,86.52
2018-04-01T15:52:59.308Z,87.67
2018-04-01T15:55:25.279Z,87.21
2018-04-01T15:57:51.130Z,88.73
2018-04-01T16:00:16.973Z,87.79
2018-04-01T16:02:42.811Z,87.31
2018-04-01T16:05:08.622Z,87.52
2018-04-01T16:07:34.458Z,87.76
2018-04-01T16:10:00.260Z,87.48
2018-04-01T16:12:26.085Z,87.45
2018-04-01T16:14:51.912Z,86.28
2018-04-01T16:17:17.697Z,86.54
2018-04-01T16:19:43.658Z,86.48
2018-04-01T16:22:10.023Z,86.48
2018-04-01T16:24:35.944Z,85.29
2018-04-01T16:27:01.826Z,85.23
2018-04-01T16:29:27.697Z,84.91
2018-04-01T16:31:53.562Z,84.38
2018-04-01T16:34:19.381Z,86.13
2018-04-01T16:36:45.173Z,84.83
2018-04-01T16:39:11.085Z,86.75
2018-04-01T16:41:36.911Z,87.46
2018-04-01T16:44:02.716Z,87.27
2018-04-01T16:46:28.522Z,86.78
2018-04-01T16:48:54.352Z,85.98
2018-04-01T16:51:20.212Z,85.75
2018-04-01T16:53:46.102Z,86.09
2018-04-01T16:56:11.970Z,84.59
2018-04-01T16:58:37.851Z,86.10
2018-04-01T17:01:03.665Z,85.60
2018-04-01T17:03:29.496Z,85.46
2018-04-01T17:05:55.400Z,84.54
2018-04-01T17:08:21.211Z,87.01
2018-04-01T17:10:47.070Z,86.74
2018-04-01T17:13:12.907Z,84.50
2018-04-01T17:15:38.739Z,84.16
2018-04-01T17:18:04.571Z,84.80
2018-04-01T17:20:30.379Z,84.61
2018-04-01T17:25:15.710Z,87.38
2018-04-01T17:27:42.311Z,84.61
2018-04-01T17:30:08.155Z,83.40
2018-04-01T17:32:34.016Z,83.83
2018-04-01T17:34:59.828Z,86.56
2018-04-01T17:37:25.746Z,85.92
2018-04-01T17:39:51.638Z,88.39
2018-04-01T17:42:17.545Z,88.08
2018-04-01T17:44:43.376Z,87.11
2018-04-01T17:47:09.228Z,86.96
2018-04-01T17:49:35.103Z,86.35
2018-04-01T17:52:00.909Z,88.54
2018-04-01T17:54:26.781Z,87.63
2018-04-01T17:56:52.690Z,87.35
2018-04-01T17:59:18.671Z,88.42
2018-04-01T18:01:44.530Z,88.52
2018-04-01T18:04:10.323Z,87.90
2018-04-01T18:06:36.129Z,88.67
2018-04-01T18:09:02.005Z,88.00
2018-04-01T18:11:27.902Z,89.46
2018-04-01T18:13:53.705Z,88.72
2018-04-01T18:16:19.607Z,89.50
2018-04-01T18:18:45.474Z,90.46
2018-04-01T18:21:11.339Z,89.37
2018-04-01T18:23:37.155Z,89.81
2018-04-01T18:26:02.962Z,89.22
2018-04-01T18:28:28.788Z,87.98
2018-04-01T18:30:54.649Z,89.58
2018-04-01T18:33:20.491Z,88.84
2018-04-01T18:35:46.309Z,88.49
2018-04-01T18:38:12.145Z,88.58
2018-04-01T18:40:37.966Z,90.79
2018-04-01T18:43:03.850Z,89.79
2018-04-01T18:45:29.724Z,90.47
2018-04-01T18:47:56.085Z,88.22
2018-04-01T18:50:22.013Z,88.36
2018-04-01T18:52:47.807Z,89.09
2018-04-01T18:55:13.666Z,86.72
2018-04-01T18:57:39.569Z,88.51
2018-04-01T19:00:05.359Z,88.00
2018-04-01T19:02:31.310Z,91.17
2018-04-01T19:04:57.894Z,90.28
2018-04-01T19:07:23.840Z,90.48
2018-04-01T19:09:49.666Z,89.31
2018-04-01T19:12:15.539Z,92.15
2018-04-01T19:14:42.163Z,90.69
2018-04-01T19:17:08.185Z,91.05
2018-04-01T19:19:34.314Z,92.00
2018-04-01T19:22:00.445Z,90.47
2018-04-01T19:24:26.462Z,91.73
2018-04-01T19:26:52.456Z,92.68
2018-04-01T19:29:18.531Z,94.04
2018-04-01T19:31:44.630Z,93.71
2018-04-01T19:34:10.659Z,94.72
2018-04-01T19:36:36.681Z,94.41
2018-04-01T19:39:02.793Z,94.86
2018-04-01T19:41:28.802Z,95.39
2018-04-01T19:43:54.835Z,95.52
2018-04-01T19:46:20.896Z,95.60
2018-04-01T19:48:46.915Z,95.80
2018-04-01T19:51:13.047Z,95.92
2018-04-01T19:53:39.171Z,95.56
2018-04-01T19:56:12.093Z,95.73
2018-04-01T19:58:38.207Z,95.94
2018-04-01T20:01:04.371Z,95.83
2018-04-01T20:03:30.608Z,96.04
2018-04-01T20:05:56.607Z,95.97
2018-04-01T20:08:23.292Z,96.04
2018-04-01T20:10:49.427Z,96.28
2018-04-01T20:13:15.490Z,96.42
2018-04-01T20:15:41.570Z,96.35
2018-04-01T20:18:07.776Z,96.23
2018-04-01T20:20:33.888Z,96.49
2018-04-01T20:23:00.015Z,96.56
2018-04-01T20:25:26.079Z,96.31
2018-04-01T20:27:52.095Z,96.50
2018-04-01T20:30:18.201Z,96.22
2018-04-01T20:32:44.263Z,96.19
2018-04-01T20:35:10.387Z,96.66
2018-04-01T20:37:36.539Z,96.23
2018-04-01T20:40:02.613Z,96.70
2018-04-01T20:42:28.772Z,96.70
2018-04-01T20:44:54.915Z,96.88
2018-04-01T20:47:20.970Z,97.02
2018-04-01T20:49:47.060Z,97.21
2018-04-01T20:52:13.850Z,97.12
2018-04-01T20:54:40.089Z,97.11
2018-04-01T20:57:06.059Z,97.23
2018-04-01T20:59:32.117Z,97.25
2018-04-01T21:01:58.229Z,97.49
2018-04-01T21:04:24.405Z,97.27
2018-04-01T21:06:50.541Z,97.21
2018-04-01T21:09:16.670Z,97.33
2018-04-01T21:11:42.708Z,97.34
2018-04-01T21:14:08.806Z,97.79
2018-04-01T21:16:34.840Z,97.49
2018-04-01T21:19:00.894Z,97.33
2018-04-01T21:21:27.040Z,98.02
2018-04-01T21:23:53.154Z,97.58
2018-04-01T21:26:19.213Z,97.51
2018-04-01T21:28:45.239Z,97.67
2018-04-01T21:31:11.317Z,97.65
2018-04-01T21:33:37.419Z,98.02
2018-04-01T21:36:03.435Z,97.65
2018-04-01T21:38:29.478Z,98.19
2018-04-01T21:40:56.124Z,97.70
2018-04-01T21:43:23.127Z,97.81
2018-04-01T21:45:49.150Z,98.81
2018-04-01T21:48:15.176Z,98.14
2018-04-01T21:50:41.174Z,97.99
2018-04-01T21:53:07.199Z,98.35
2018-04-01T21:55:33.210Z,97.81
2018-04-01T21:57:59.279Z,98.20
2018-04-01T22:00:25.301Z,97.84
2018-04-01T22:02:51.364Z,97.92
2018-04-01T22:05:17.514Z,97.97
2018-04-01T22:07:43.583Z,98.03
2018-04-01T22:10:10.250Z,98.30
2018-04-01T22:12:36.280Z,98.02
2018-04-01T22:15:02.408Z,98.70
2018-04-01T22:17:28.486Z,97.98
2018-04-01T22:19:54.536Z,98.21
2018-04-01T22:22:20.634Z,98.09
2018-04-01T22:24:46.653Z,98.11
2018-04-01T22:27:12.664Z,98.47
2018-04-01T22:29:38.753Z,98.30
2018-04-01T22:32:04.827Z,98.11
2018-04-01T22:34:30.876Z,98.22
2018-04-01T22:36:56.926Z,98.49
2018-04-01T22:39:22.985Z,98.72
2018-04-01T22:41:49.054Z,98.60
2018-04-01T22:44:15.058Z,98.37
2018-04-01T22:46:41.091Z,98.31
2018-04-01T22:49:07.170Z,98.37
2018-04-01T22:51:33.222Z,98.82
2018-04-01T22:53:59.250Z,98.83
2018-04-01T22:56:25.302Z,99.28
2018-04-01T22:58:52.040Z,98.90
2018-04-01T23:01:18.057Z,98.25
2018-04-01T23:03:44.078Z,96.85
2018-04-01T23:06:10.130Z,95.40
2018-04-01T23:08:36.149Z,97.20
2018-04-01T23:11:02.275Z,96.72
2018-04-01T23:13:28.969Z,97.75
2018-04-01T23:15:55.081Z,98.15
2018-04-01T23:18:22.825Z,97.54
2018-04-01T23:20:48.933Z,97.88
2018-04-01T23:23:15.023Z,98.14
2018-04-01T23:25:41.072Z,98.10
2018-04-01T23:28:07.104Z,98.37
2018-04-01T23:30:33.149Z,98.22
2018-04-01T23:32:59.198Z,98.22
2018-04-01T23:35:25.228Z,97.49
2018-04-01T23:37:51.331Z,95.95
2018-04-01T23:40:17.374Z,95.53
2018-04-01T23:42:43.474Z,96.14
2018-04-01T23:45:09.506Z,94.44
2018-04-01T23:47:35.674Z,92.80
2018-04-01T23:50:01.884Z,94.46
2018-04-01T23:52:27.981Z,95.87
2018-04-01T23:54:54.034Z,97.06
2018-04-01T23:57:20.071Z,95.09
2018-04-01T23:59:46.075Z,95.22
